Terminal Aerodrome Forecast
Issued by NWS Sioux Falls, SD

Home | Current Version | Previous Version | Text Only | Print | Product List | Glossary Off
Versions: 1 2 3 4 5 6 7 8 9 10 11 12 13 14 15 16 17 18 19

000
FTUS43 KFSD 191503 AAB
TAFFSD
TAF AMD
KFSD 191503Z 1915/2012 16013G20KT 3SM BR OVC006
     FM191700 16015G23KT 6SM BR OVC012
     FM192000 15019G27KT P6SM BKN150
     FM192200 15020G28KT P6SM SCT030
     FM200400 16015G23KT P6SM VCTS BKN080CB
     FM200600 32012KT P6SM OVC035
     FM200900 32006KT P6SM SCT130=

USA.gov is the U.S. government's official web portal to all federal, state and local government web resources and services.